sensor_id;sensor_type;location;lat;lon;timestamp;temperature;humidity
70851;DHT22;58475;49.662;9.636;2024-03-17T00:00:16;4.21;92.62
70851;DHT22;58475;49.662;9.636;2024-03-17T00:02:44;4.32;92.27
70851;DHT22;58475;49.662;9.636;2024-03-17T00:05:10;4.27;92.14
70851;DHT22;58475;49.662;9.636;2024-03-17T00:07:35;4.27;92.38
70851;DHT22;58475;49.662;9.636;2024-03-17T00:10:01;4.31;92.22
70851;DHT22;58475;49.662;9.636;2024-03-17T00:12:26;4.27;92.39
70851;DHT22;58475;49.662;9.636;2024-03-17T00:14:52;4.27;92.58
70851;DHT22;58475;49.662;9.636;2024-03-17T00:17:17;4.34;92.40
70851;DHT22;58475;49.662;9.636;2024-03-17T00:19:46;4.25;92.82
70851;DHT22;58475;49.662;9.636;2024-03-17T00:22:11;4.21;92.87
70851;DHT22;58475;49.662;9.636;2024-03-17T00:24:38;4.21;92.75
70851;DHT22;58475;49.662;9.636;2024-03-17T00:27:04;4.17;92.57
70851;DHT22;58475;49.662;9.636;2024-03-17T00:29:29;4.18;92.19
70851;DHT22;58475;49.662;9.636;2024-03-17T00:31:55;4.08;92.77
70851;DHT22;58475;49.662;9.636;2024-03-17T00:34:21;4.01;92.96
70851;DHT22;58475;49.662;9.636;2024-03-17T00:36:47;4.03;92.99
70851;DHT22;58475;49.662;9.636;2024-03-17T00:39:13;4.05;92.83
70851;DHT22;58475;49.662;9.636;2024-03-17T00:41:40;4.08;92.57
70851;DHT22;58475;49.662;9.636;2024-03-17T00:44:05;3.98;92.74
70851;DHT22;58475;49.662;9.636;2024-03-17T00:46:31;3.98;92.66
70851;DHT22;58475;49.662;9.636;2024-03-17T00:48:58;4.04;92.35
70851;DHT22;58475;49.662;9.636;2024-03-17T00:51:25;4.01;92.03
70851;DHT22;58475;49.662;9.636;2024-03-17T00:53:51;3.98;91.80
70851;DHT22;58475;49.662;9.636;2024-03-17T00:56:16;3.84;92.48
70851;DHT22;58475;49.662;9.636;2024-03-17T00:58:42;3.82;92.99
70851;DHT22;58475;49.662;9.636;2024-03-17T01:01:08;3.79;92.94
70851;DHT22;58475;49.662;9.636;2024-03-17T01:03:33;3.72;93.36
70851;DHT22;58475;49.662;9.636;2024-03-17T01:05:58;3.74;93.23
70851;DHT22;58475;49.662;9.636;2024-03-17T01:08:24;3.72;93.02
70851;DHT22;58475;49.662;9.636;2024-03-17T01:10:50;3.66;93.04
70851;DHT22;58475;49.662;9.636;2024-03-17T01:13:17;3.62;92.89
70851;DHT22;58475;49.662;9.636;2024-03-17T01:15:43;3.53;92.92
70851;DHT22;58475;49.662;9.636;2024-03-17T01:18:08;3.52;92.97
70851;DHT22;58475;49.662;9.636;2024-03-17T01:20:35;3.56;92.96
70851;DHT22;58475;49.662;9.636;2024-03-17T01:23:01;3.62;92.67
70851;DHT22;58475;49.662;9.636;2024-03-17T01:25:27;3.56;92.76
70851;DHT22;58475;49.662;9.636;2024-03-17T01:27:55;3.48;92.96
70851;DHT22;58475;49.662;9.636;2024-03-17T01:30:20;3.43;93.05
70851;DHT22;58475;49.662;9.636;2024-03-17T01:32:46;3.46;93.11
70851;DHT22;58475;49.662;9.636;2024-03-17T01:35:11;3.42;93.08
70851;DHT22;58475;49.662;9.636;2024-03-17T01:37:40;3.42;93.07
70851;DHT22;58475;49.662;9.636;2024-03-17T01:40:06;3.36;93.34
70851;DHT22;58475;49.662;9.636;2024-03-17T01:42:39;3.38;93.35
70851;DHT22;58475;49.662;9.636;2024-03-17T01:47:43;3.38;93.49
70851;DHT22;58475;49.662;9.636;2024-03-17T01:50:09;3.36;93.34
70851;DHT22;58475;49.662;9.636;2024-03-17T01:52:36;3.33;93.28
70851;DHT22;58475;49.662;9.636;2024-03-17T01:55:03;3.26;93.23
70851;DHT22;58475;49.662;9.636;2024-03-17T01:57:29;3.25;93.25
70851;DHT22;58475;49.662;9.636;2024-03-17T01:59:55;3.18;93.22
70851;DHT22;58475;49.662;9.636;2024-03-17T02:02:22;3.09;93.40
70851;DHT22;58475;49.662;9.636;2024-03-17T02:04:48;3.05;93.44
70851;DHT22;58475;49.662;9.636;2024-03-17T02:07:13;2.98;93.75
70851;DHT22;58475;49.662;9.636;2024-03-17T02:09:40;2.90;94.28
70851;DHT22;58475;49.662;9.636;2024-03-17T02:12:06;2.87;94.22
70851;DHT22;58475;49.662;9.636;2024-03-17T02:14:33;2.87;94.21
70851;DHT22;58475;49.662;9.636;2024-03-17T02:16:59;2.79;94.25
70851;DHT22;58475;49.662;9.636;2024-03-17T02:19:24;2.79;94.20
70851;DHT22;58475;49.662;9.636;2024-03-17T02:21:50;2.85;94.02
70851;DHT22;58475;49.662;9.636;2024-03-17T02:24:16;2.79;93.96
70851;DHT22;58475;49.662;9.636;2024-03-17T02:26:41;2.83;94.21
70851;DHT22;58475;49.662;9.636;2024-03-17T02:29:07;2.84;94.20
70851;DHT22;58475;49.662;9.636;2024-03-17T02:31:32;2.91;93.93
70851;DHT22;58475;49.662;9.636;2024-03-17T02:33:57;2.94;93.91
70851;DHT22;58475;49.662;9.636;2024-03-17T02:36:26;2.97;93.87
70851;DHT22;58475;49.662;9.636;2024-03-17T02:38:52;3.03;93.62
70851;DHT22;58475;49.662;9.636;2024-03-17T02:41:36;3.00;92.80
70851;DHT22;58475;49.662;9.636;2024-03-17T02:44:01;2.98;92.14
70851;DHT22;58475;49.662;9.636;2024-03-17T02:46:27;2.80;92.60
70851;DHT22;58475;49.662;9.636;2024-03-17T02:48:53;2.63;93.33
70851;DHT22;58475;49.662;9.636;2024-03-17T02:51:20;2.44;93.87
70851;DHT22;58475;49.662;9.636;2024-03-17T02:53:47;2.35;94.70
70851;DHT22;58475;49.662;9.636;2024-03-17T02:56:14;2.33;94.91
70851;DHT22;58475;49.662;9.636;2024-03-17T02:58:44;2.39;95.00
70851;DHT22;58475;49.662;9.636;2024-03-17T03:01:14;2.43;94.73
70851;DHT22;58475;49.662;9.636;2024-03-17T03:03:43;2.43;94.70
70851;DHT22;58475;49.662;9.636;2024-03-17T03:06:09;2.29;94.94
70851;DHT22;58475;49.662;9.636;2024-03-17T03:08:38;2.21;94.99
70851;DHT22;58475;49.662;9.636;2024-03-17T03:11:11;2.23;94.99
70851;DHT22;58475;49.662;9.636;2024-03-17T03:13:46;2.26;94.97
70851;DHT22;58475;49.662;9.636;2024-03-17T03:16:13;2.30;94.93
70851;DHT22;58475;49.662;9.636;2024-03-17T03:18:43;2.39;94.83
70851;DHT22;58475;49.662;9.636;2024-03-17T03:21:10;2.46;94.90
70851;DHT22;58475;49.662;9.636;2024-03-17T03:23:36;2.52;94.83
70851;DHT22;58475;49.662;9.636;2024-03-17T03:26:03;2.58;94.70
70851;DHT22;58475;49.662;9.636;2024-03-17T03:28:30;2.63;94.65
70851;DHT22;58475;49.662;9.636;2024-03-17T03:30:56;2.58;94.78
70851;DHT22;58475;49.662;9.636;2024-03-17T03:33:23;2.44;95.02
70851;DHT22;58475;49.662;9.636;2024-03-17T03:35:49;2.53;95.06
70851;DHT22;58475;49.662;9.636;2024-03-17T03:38:17;2.54;94.74
70851;DHT22;58475;49.662;9.636;2024-03-17T03:40:44;2.60;94.62
70851;DHT22;58475;49.662;9.636;2024-03-17T03:43:10;2.68;94.30
70851;DHT22;58475;49.662;9.636;2024-03-17T03:45:35;2.65;94.50
70851;DHT22;58475;49.662;9.636;2024-03-17T03:48:01;2.61;94.57
70851;DHT22;58475;49.662;9.636;2024-03-17T03:50:28;2.64;94.42
70851;DHT22;58475;49.662;9.636;2024-03-17T03:52:54;2.60;94.69
70851;DHT22;58475;49.662;9.636;2024-03-17T03:55:19;2.63;94.70
70851;DHT22;58475;49.662;9.636;2024-03-17T03:57:45;2.67;94.46
70851;DHT22;58475;49.662;9.636;2024-03-17T04:00:16;2.72;94.39
70851;DHT22;58475;49.662;9.636;2024-03-17T04:02:44;2.67;94.34
70851;DHT22;58475;49.662;9.636;2024-03-17T04:05:10;2.65;94.54
70851;DHT22;58475;49.662;9.636;2024-03-17T04:07:36;2.76;94.37
70851;DHT22;58475;49.662;9.636;2024-03-17T04:10:03;2.74;94.33
70851;DHT22;58475;49.662;9.636;2024-03-17T04:12:29;2.74;94.72
70851;DHT22;58475;49.662;9.636;2024-03-17T04:14:59;2.73;94.68
70851;DHT22;58475;49.662;9.636;2024-03-17T04:17:25;2.79;94.52
70851;DHT22;58475;49.662;9.636;2024-03-17T04:19:54;2.80;94.35
70851;DHT22;58475;49.662;9.636;2024-03-17T04:22:20;2.83;94.43
70851;DHT22;58475;49.662;9.636;2024-03-17T04:24:47;2.83;94.40
70851;DHT22;58475;49.662;9.636;2024-03-17T04:27:18;2.91;93.95
70851;DHT22;58475;49.662;9.636;2024-03-17T04:29:46;2.84;94.17
70851;DHT22;58475;49.662;9.636;2024-03-17T04:32:16;2.83;94.36
70851;DHT22;58475;49.662;9.636;2024-03-17T04:34:41;2.79;94.97
70851;DHT22;58475;49.662;9.636;2024-03-17T04:37:11;2.73;95.28
70851;DHT22;58475;49.662;9.636;2024-03-17T04:39:40;2.76;95.37
70851;DHT22;58475;49.662;9.636;2024-03-17T04:42:08;2.87;95.14
70851;DHT22;58475;49.662;9.636;2024-03-17T04:44:34;2.95;94.72
70851;DHT22;58475;49.662;9.636;2024-03-17T04:46:59;2.98;94.45
70851;DHT22;58475;49.662;9.636;2024-03-17T04:49:25;2.93;94.41
70851;DHT22;58475;49.662;9.636;2024-03-17T04:51:50;3.00;94.52
70851;DHT22;58475;49.662;9.636;2024-03-17T04:54:16;3.03;94.53
70851;DHT22;58475;49.662;9.636;2024-03-17T04:56:41;3.03;94.36
70851;DHT22;58475;49.662;9.636;2024-03-17T04:59:07;3.07;94.56
70851;DHT22;58475;49.662;9.636;2024-03-17T05:01:32;3.12;94.40
70851;DHT22;58475;49.662;9.636;2024-03-17T05:04:04;3.24;94.25
70851;DHT22;58475;49.662;9.636;2024-03-17T05:06:30;3.25;94.49
70851;DHT22;58475;49.662;9.636;2024-03-17T05:08:56;3.26;94.12
70851;DHT22;58475;49.662;9.636;2024-03-17T05:11:22;3.22;94.37
70851;DHT22;58475;49.662;9.636;2024-03-17T05:13:49;3.16;94.73
70851;DHT22;58475;49.662;9.636;2024-03-17T05:16:14;3.12;94.74
70851;DHT22;58475;49.662;9.636;2024-03-17T05:18:41;3.16;94.80
70851;DHT22;58475;49.662;9.636;2024-03-17T05:21:06;3.14;94.59
70851;DHT22;58475;49.662;9.636;2024-03-17T05:23:36;3.19;94.42
70851;DHT22;58475;49.662;9.636;2024-03-17T05:26:03;3.19;94.25
70851;DHT22;58475;49.662;9.636;2024-03-17T05:28:32;3.12;94.64
70851;DHT22;58475;49.662;9.636;2024-03-17T05:30:58;3.16;94.69
70851;DHT22;58475;49.662;9.636;2024-03-17T05:33:24;3.21;94.34
70851;DHT22;58475;49.662;9.636;2024-03-17T05:35:55;3.15;94.75
70851;DHT22;58475;49.662;9.636;2024-03-17T05:38:27;3.14;94.93
70851;DHT22;58475;49.662;9.636;2024-03-17T05:40:57;3.15;94.95
70851;DHT22;58475;49.662;9.636;2024-03-17T05:43:23;3.08;94.77
70851;DHT22;58475;49.662;9.636;2024-03-17T05:45:52;3.09;94.54
70851;DHT22;58475;49.662;9.636;2024-03-17T05:48:18;3.09;94.59
70851;DHT22;58475;49.662;9.636;2024-03-17T05:50:44;3.09;94.49
70851;DHT22;58475;49.662;9.636;2024-03-17T05:53:09;3.03;94.67
70851;DHT22;58475;49.662;9.636;2024-03-17T05:55:36;3.04;94.71
70851;DHT22;58475;49.662;9.636;2024-03-17T05:58:02;3.03;94.58
70851;DHT22;58475;49.662;9.636;2024-03-17T06:00:28;3.00;94.92
70851;DHT22;58475;49.662;9.636;2024-03-17T06:02:53;3.00;94.88
70851;DHT22;58475;49.662;9.636;2024-03-17T06:05:19;2.94;94.86
70851;DHT22;58475;49.662;9.636;2024-03-17T06:07:44;3.01;94.83
70851;DHT22;58475;49.662;9.636;2024-03-17T06:10:12;3.15;94.64
70851;DHT22;58475;49.662;9.636;2024-03-17T06:12:38;3.21;94.33
70851;DHT22;58475;49.662;9.636;2024-03-17T06:15:04;3.28;94.21
70851;DHT22;58475;49.662;9.636;2024-03-17T06:17:29;3.66;93.20
70851;DHT22;58475;49.662;9.636;2024-03-17T06:19:55;3.93;92.50
70851;DHT22;58475;49.662;9.636;2024-03-17T06:22:22;4.20;91.61
70851;DHT22;58475;49.662;9.636;2024-03-17T06:24:48;4.59;90.59
70851;DHT22;58475;49.662;9.636;2024-03-17T06:27:14;4.90;89.51
70851;DHT22;58475;49.662;9.636;2024-03-17T06:29:40;5.13;88.91
70851;DHT22;58475;49.662;9.636;2024-03-17T06:32:05;5.34;88.35
70851;DHT22;58475;49.662;9.636;2024-03-17T06:34:31;5.47;88.22
70851;DHT22;58475;49.662;9.636;2024-03-17T06:36:56;5.81;87.56
70851;DHT22;58475;49.662;9.636;2024-03-17T06:39:22;6.02;85.95
70851;DHT22;58475;49.662;9.636;2024-03-17T06:41:47;6.23;85.64
70851;DHT22;58475;49.662;9.636;2024-03-17T06:44:13;6.43;84.96
70851;DHT22;58475;49.662;9.636;2024-03-17T06:46:38;6.75;83.97
70851;DHT22;58475;49.662;9.636;2024-03-17T06:49:04;7.02;83.98
70851;DHT22;58475;49.662;9.636;2024-03-17T06:51:29;7.34;82.44
70851;DHT22;58475;49.662;9.636;2024-03-17T06:53:55;7.23;82.08
70851;DHT22;58475;49.662;9.636;2024-03-17T06:56:20;7.33;81.08
70851;DHT22;58475;49.662;9.636;2024-03-17T06:58:45;7.60;81.01
70851;DHT22;58475;49.662;9.636;2024-03-17T07:01:12;7.46;81.03
70851;DHT22;58475;49.662;9.636;2024-03-17T07:03:37;7.57;80.43
70851;DHT22;58475;49.662;9.636;2024-03-17T07:06:03;7.73;80.57
70851;DHT22;58475;49.662;9.636;2024-03-17T07:08:30;7.84;80.14
70851;DHT22;58475;49.662;9.636;2024-03-17T07:13:30;8.24;79.37
70851;DHT22;58475;49.662;9.636;2024-03-17T07:15:56;8.36;79.42
70851;DHT22;58475;49.662;9.636;2024-03-17T07:18:21;8.36;79.19
70851;DHT22;58475;49.662;9.636;2024-03-17T07:20:47;8.33;78.45
70851;DHT22;58475;49.662;9.636;2024-03-17T07:23:15;8.66;78.45
70851;DHT22;58475;49.662;9.636;2024-03-17T07:25:41;8.91;77.64
70851;DHT22;58475;49.662;9.636;2024-03-17T07:28:08;9.05;77.17
70851;DHT22;58475;49.662;9.636;2024-03-17T07:30:33;9.51;76.55
70851;DHT22;58475;49.662;9.636;2024-03-17T07:32:59;9.76;76.21
70851;DHT22;58475;49.662;9.636;2024-03-17T07:35:24;9.85;74.45
70851;DHT22;58475;49.662;9.636;2024-03-17T07:37:49;9.58;75.53
70851;DHT22;58475;49.662;9.636;2024-03-17T07:40:15;9.56;76.04
70851;DHT22;58475;49.662;9.636;2024-03-17T07:42:42;9.44;76.10
70851;DHT22;58475;49.662;9.636;2024-03-17T07:45:07;9.17;77.52
70851;DHT22;58475;49.662;9.636;2024-03-17T07:47:33;9.07;78.64
70851;DHT22;58475;49.662;9.636;2024-03-17T07:50:04;8.96;77.85
70851;DHT22;58475;49.662;9.636;2024-03-17T07:52:33;8.99;77.89
70851;DHT22;58475;49.662;9.636;2024-03-17T07:54:59;9.13;77.95
70851;DHT22;58475;49.662;9.636;2024-03-17T07:57:24;9.07;79.05
70851;DHT22;58475;49.662;9.636;2024-03-17T07:59:50;9.21;79.37
70851;DHT22;58475;49.662;9.636;2024-03-17T08:02:17;9.68;77.78
70851;DHT22;58475;49.662;9.636;2024-03-17T08:04:42;9.41;77.73
70851;DHT22;58475;49.662;9.636;2024-03-17T08:07:09;9.55;77.44
70851;DHT22;58475;49.662;9.636;2024-03-17T08:09:35;9.73;77.50
70851;DHT22;58475;49.662;9.636;2024-03-17T08:12:01;9.92;78.28
70851;DHT22;58475;49.662;9.636;2024-03-17T08:14:32;9.86;78.50
70851;DHT22;58475;49.662;9.636;2024-03-17T08:16:57;10.03;76.61
70851;DHT22;58475;49.662;9.636;2024-03-17T08:19:23;9.99;78.16
70851;DHT22;58475;49.662;9.636;2024-03-17T08:21:48;9.97;77.45
70851;DHT22;58475;49.662;9.636;2024-03-17T08:24:14;9.94;77.88
70851;DHT22;58475;49.662;9.636;2024-03-17T08:26:43;9.86;77.82
70851;DHT22;58475;49.662;9.636;2024-03-17T08:29:11;10.07;76.86
70851;DHT22;58475;49.662;9.636;2024-03-17T08:31:36;10.16;77.05
70851;DHT22;58475;49.662;9.636;2024-03-17T08:34:02;10.10;78.16
70851;DHT22;58475;49.662;9.636;2024-03-17T08:36:27;10.30;76.50
70851;DHT22;58475;49.662;9.636;2024-03-17T08:38:54;10.43;75.67
70851;DHT22;58475;49.662;9.636;2024-03-17T08:41:20;10.51;76.72
70851;DHT22;58475;49.662;9.636;2024-03-17T08:43:45;10.81;74.71
70851;DHT22;58475;49.662;9.636;2024-03-17T08:46:11;11.05;74.42
70851;DHT22;58475;49.662;9.636;2024-03-17T08:48:40;11.94;74.00
70851;DHT22;58475;49.662;9.636;2024-03-17T08:51:06;12.42;70.73
70851;DHT22;58475;49.662;9.636;2024-03-17T08:53:32;12.35;70.35
70851;DHT22;58475;49.662;9.636;2024-03-17T08:55:59;13.01;67.66
70851;DHT22;58475;49.662;9.636;2024-03-17T08:58:27;13.06;66.17
70851;DHT22;58475;49.662;9.636;2024-03-17T09:00:53;13.86;66.92
70851;DHT22;58475;49.662;9.636;2024-03-17T09:03:19;14.54;66.27
70851;DHT22;58475;49.662;9.636;2024-03-17T09:05:46;13.99;64.41
70851;DHT22;58475;49.662;9.636;2024-03-17T09:08:16;14.10;64.94
70851;DHT22;58475;49.662;9.636;2024-03-17T09:10:43;14.14;62.76
70851;DHT22;58475;49.662;9.636;2024-03-17T09:13:20;14.79;63.49
70851;DHT22;58475;49.662;9.636;2024-03-17T09:16:04;15.33;60.07
70851;DHT22;58475;49.662;9.636;2024-03-17T09:18:31;15.19;62.40
70851;DHT22;58475;49.662;9.636;2024-03-17T09:21:04;15.49;62.89
70851;DHT22;58475;49.662;9.636;2024-03-17T09:23:30;15.87;62.53
70851;DHT22;58475;49.662;9.636;2024-03-17T09:26:05;15.96;59.51
70851;DHT22;58475;49.662;9.636;2024-03-17T09:28:32;16.29;59.64
70851;DHT22;58475;49.662;9.636;2024-03-17T09:30:58;16.53;60.30
70851;DHT22;58475;49.662;9.636;2024-03-17T09:33:25;16.66;60.07
70851;DHT22;58475;49.662;9.636;2024-03-17T09:35:58;16.63;61.02
70851;DHT22;58475;49.662;9.636;2024-03-17T09:38:24;16.42;59.89
70851;DHT22;58475;49.662;9.636;2024-03-17T09:40:49;16.33;60.33
70851;DHT22;58475;49.662;9.636;2024-03-17T09:43:19;16.44;59.43
70851;DHT22;58475;49.662;9.636;2024-03-17T09:45:44;16.29;59.35
70851;DHT22;58475;49.662;9.636;2024-03-17T09:48:14;16.35;56.88
70851;DHT22;58475;49.662;9.636;2024-03-17T09:50:40;16.39;58.70
70851;DHT22;58475;49.662;9.636;2024-03-17T09:53:06;16.11;56.39
70851;DHT22;58475;49.662;9.636;2024-03-17T09:55:39;16.18;55.24
70851;DHT22;58475;49.662;9.636;2024-03-17T09:58:04;16.55;57.23
70851;DHT22;58475;49.662;9.636;2024-03-17T10:00:30;16.70;57.24
70851;DHT22;58475;49.662;9.636;2024-03-17T10:02:55;16.79;56.48
70851;DHT22;58475;49.662;9.636;2024-03-17T10:05:22;16.56;54.85
70851;DHT22;58475;49.662;9.636;2024-03-17T10:07:51;16.44;57.90
70851;DHT22;58475;49.662;9.636;2024-03-17T10:10:18;16.52;53.29
70851;DHT22;58475;49.662;9.636;2024-03-17T10:12:51;16.87;54.08
70851;DHT22;58475;49.662;9.636;2024-03-17T10:15:17;17.07;54.37
70851;DHT22;58475;49.662;9.636;2024-03-17T10:17:44;17.45;52.75
70851;DHT22;58475;49.662;9.636;2024-03-17T10:20:17;17.02;51.69
70851;DHT22;58475;49.662;9.636;2024-03-17T10:25:34;17.17;52.16
70851;DHT22;58475;49.662;9.636;2024-03-17T10:28:01;17.03;50.53
70851;DHT22;58475;49.662;9.636;2024-03-17T10:30:27;16.93;53.20
70851;DHT22;58475;49.662;9.636;2024-03-17T10:32:58;16.88;52.56
70851;DHT22;58475;49.662;9.636;2024-03-17T10:35:35;17.06;52.26
70851;DHT22;58475;49.662;9.636;2024-03-17T10:38:06;17.41;52.28
70851;DHT22;58475;49.662;9.636;2024-03-17T10:40:32;17.48;49.67
70851;DHT22;58475;49.662;9.636;2024-03-17T10:43:00;16.90;50.34
70851;DHT22;58475;49.662;9.636;2024-03-17T10:45:26;16.44;52.49
70851;DHT22;58475;49.662;9.636;2024-03-17T10:47:52;16.46;54.91
70851;DHT22;58475;49.662;9.636;2024-03-17T10:50:22;16.48;53.15
70851;DHT22;58475;49.662;9.636;2024-03-17T10:52:50;16.90;55.12
70851;DHT22;58475;49.662;9.636;2024-03-17T10:55:23;16.75;52.63
70851;DHT22;58475;49.662;9.636;2024-03-17T10:57:54;16.35;53.35
70851;DHT22;58475;49.662;9.636;2024-03-17T11:00:24;16.42;56.41
70851;DHT22;58475;49.662;9.636;2024-03-17T11:02:53;16.75;54.84
70851;DHT22;58475;49.662;9.636;2024-03-17T11:05:22;16.72;55.20
70851;DHT22;58475;49.662;9.636;2024-03-17T11:07:49;16.41;55.37
70851;DHT22;58475;49.662;9.636;2024-03-17T11:10:19;16.53;54.76
70851;DHT22;58475;49.662;9.636;2024-03-17T11:12:46;16.48;53.73
70851;DHT22;58475;49.662;9.636;2024-03-17T11:17:45;16.35;55.12
70851;DHT22;58475;49.662;9.636;2024-03-17T11:20:15;16.19;54.72
70851;DHT22;58475;49.662;9.636;2024-03-17T11:22:43;16.32;52.76
70851;DHT22;58475;49.662;9.636;2024-03-17T11:28:03;16.97;55.53
70851;DHT22;58475;49.662;9.636;2024-03-17T11:30:50;17.06;53.73
70851;DHT22;58475;49.662;9.636;2024-03-17T11:39:01;16.86;55.20
70851;DHT22;58475;49.662;9.636;2024-03-17T11:41:40;17.00;54.38
70851;DHT22;58475;49.662;9.636;2024-03-17T11:44:24;16.93;54.73
70851;DHT22;58475;49.662;9.636;2024-03-17T11:49:25;16.29;54.46
70851;DHT22;58475;49.662;9.636;2024-03-17T11:51:53;16.21;57.99
70851;DHT22;58475;49.662;9.636;2024-03-17T11:54:20;16.02;53.73
70851;DHT22;58475;49.662;9.636;2024-03-17T11:56:51;16.09;56.27
70851;DHT22;58475;49.662;9.636;2024-03-17T11:59:18;16.24;55.85
70851;DHT22;58475;49.662;9.636;2024-03-17T12:01:51;16.11;54.93
70851;DHT22;58475;49.662;9.636;2024-03-17T12:04:18;16.12;54.64
70851;DHT22;58475;49.662;9.636;2024-03-17T12:06:46;16.38;56.75
70851;DHT22;58475;49.662;9.636;2024-03-17T12:09:27;16.49;54.05
70851;DHT22;58475;49.662;9.636;2024-03-17T12:12:05;16.35;57.49
70851;DHT22;58475;49.662;9.636;2024-03-17T12:14:32;16.57;56.08
70851;DHT22;58475;49.662;9.636;2024-03-17T12:17:03;16.59;54.73
70851;DHT22;58475;49.662;9.636;2024-03-17T12:19:29;16.29;56.50
70851;DHT22;58475;49.662;9.636;2024-03-17T12:21:56;16.28;56.75
70851;DHT22;58475;49.662;9.636;2024-03-17T12:24:24;16.42;55.33
70851;DHT22;58475;49.662;9.636;2024-03-17T12:26:50;16.52;55.60
70851;DHT22;58475;49.662;9.636;2024-03-17T12:31:47;16.59;55.51
70851;DHT22;58475;49.662;9.636;2024-03-17T12:34:12;16.56;55.26
70851;DHT22;58475;49.662;9.636;2024-03-17T12:36:39;16.76;55.02
70851;DHT22;58475;49.662;9.636;2024-03-17T12:39:17;16.73;55.22
70851;DHT22;58475;49.662;9.636;2024-03-17T12:41:44;17.14;56.64
70851;DHT22;58475;49.662;9.636;2024-03-17T12:44:21;17.17;56.41
70851;DHT22;58475;49.662;9.636;2024-03-17T12:46:47;17.59;55.62
70851;DHT22;58475;49.662;9.636;2024-03-17T12:49:12;18.00;55.20
70851;DHT22;58475;49.662;9.636;2024-03-17T12:51:38;17.78;53.91
70851;DHT22;58475;49.662;9.636;2024-03-17T12:54:20;17.38;54.81
70851;DHT22;58475;49.662;9.636;2024-03-17T12:56:46;17.35;55.36
70851;DHT22;58475;49.662;9.636;2024-03-17T12:59:42;17.58;56.46
70851;DHT22;58475;49.662;9.636;2024-03-17T13:02:26;17.69;54.85
70851;DHT22;58475;49.662;9.636;2024-03-17T13:05:19;17.86;53.47
70851;DHT22;58475;49.662;9.636;2024-03-17T13:07:46;17.58;53.80
70851;DHT22;58475;49.662;9.636;2024-03-17T13:10:21;17.24;55.28
70851;DHT22;58475;49.662;9.636;2024-03-17T13:12:47;16.99;55.06
70851;DHT22;58475;49.662;9.636;2024-03-17T13:15:17;16.81;56.57
70851;DHT22;58475;49.662;9.636;2024-03-17T13:17:43;17.14;55.05
70851;DHT22;58475;49.662;9.636;2024-03-17T13:20:14;17.39;54.73
70851;DHT22;58475;49.662;9.636;2024-03-17T13:22:41;17.39;54.80
70851;DHT22;58475;49.662;9.636;2024-03-17T13:25:17;17.08;55.64
70851;DHT22;58475;49.662;9.636;2024-03-17T13:27:44;16.75;55.50
70851;DHT22;58475;49.662;9.636;2024-03-17T13:30:14;16.57;57.09
70851;DHT22;58475;49.662;9.636;2024-03-17T13:32:40;16.35;56.55
70851;DHT22;58475;49.662;9.636;2024-03-17T13:35:06;16.26;58.59
70851;DHT22;58475;49.662;9.636;2024-03-17T13:37:34;16.21;57.78
70851;DHT22;58475;49.662;9.636;2024-03-17T13:40:02;16.15;58.21
70851;DHT22;58475;49.662;9.636;2024-03-17T13:42:30;15.93;58.19
70851;DHT22;58475;49.662;9.636;2024-03-17T13:44:55;16.04;59.75
70851;DHT22;58475;49.662;9.636;2024-03-17T13:47:21;16.01;58.41
70851;DHT22;58475;49.662;9.636;2024-03-17T13:49:47;15.77;58.60
70851;DHT22;58475;49.662;9.636;2024-03-17T13:52:12;15.74;59.17
70851;DHT22;58475;49.662;9.636;2024-03-17T13:54:38;15.60;59.02
70851;DHT22;58475;49.662;9.636;2024-03-17T13:57:03;15.66;59.57
70851;DHT22;58475;49.662;9.636;2024-03-17T13:59:30;15.73;59.04
70851;DHT22;58475;49.662;9.636;2024-03-17T14:01:55;15.68;58.33
70851;DHT22;58475;49.662;9.636;2024-03-17T14:04:21;15.74;59.15
70851;DHT22;58475;49.662;9.636;2024-03-17T14:06:47;15.67;59.56
70851;DHT22;58475;49.662;9.636;2024-03-17T14:09:15;15.76;59.26
70851;DHT22;58475;49.662;9.636;2024-03-17T14:11:43;15.87;60.06
70851;DHT22;58475;49.662;9.636;2024-03-17T14:14:08;15.87;59.75
70851;DHT22;58475;49.662;9.636;2024-03-17T14:16:34;15.78;57.77
70851;DHT22;58475;49.662;9.636;2024-03-17T14:19:00;15.70;58.61
70851;DHT22;58475;49.662;9.636;2024-03-17T14:21:29;15.61;58.79
70851;DHT22;58475;49.662;9.636;2024-03-17T14:23:55;15.68;58.25
70851;DHT22;58475;49.662;9.636;2024-03-17T14:26:21;15.67;60.44
70851;DHT22;58475;49.662;9.636;2024-03-17T14:28:47;15.64;59.45
70851;DHT22;58475;49.662;9.636;2024-03-17T14:31:14;15.60;58.72
70851;DHT22;58475;49.662;9.636;2024-03-17T14:33:39;15.54;59.48
70851;DHT22;58475;49.662;9.636;2024-03-17T14:36:05;15.40;59.41
70851;DHT22;58475;49.662;9.636;2024-03-17T14:38:31;15.22;58.10
70851;DHT22;58475;49.662;9.636;2024-03-17T14:40:57;15.18;59.99
70851;DHT22;58475;49.662;9.636;2024-03-17T14:43:22;15.35;60.70
70851;DHT22;58475;49.662;9.636;2024-03-17T14:45:48;15.26;60.05
70851;DHT22;58475;49.662;9.636;2024-03-17T14:48:14;15.25;60.72
70851;DHT22;58475;49.662;9.636;2024-03-17T14:50:39;15.30;60.33
70851;DHT22;58475;49.662;9.636;2024-03-17T14:53:06;15.23;58.24
70851;DHT22;58475;49.662;9.636;2024-03-17T14:55:31;15.15;58.74
70851;DHT22;58475;49.662;9.636;2024-03-17T14:57:57;15.06;59.13
70851;DHT22;58475;49.662;9.636;2024-03-17T15:00:23;15.05;58.33
70851;DHT22;58475;49.662;9.636;2024-03-17T15:02:51;15.09;59.37
70851;DHT22;58475;49.662;9.636;2024-03-17T15:05:17;15.19;58.51
70851;DHT22;58475;49.662;9.636;2024-03-17T15:07:47;15.19;58.34
70851;DHT22;58475;49.662;9.636;2024-03-17T15:10:13;15.15;59.23
70851;DHT22;58475;49.662;9.636;2024-03-17T15:12:39;15.13;59.91
70851;DHT22;58475;49.662;9.636;2024-03-17T15:15:08;15.12;60.55
70851;DHT22;58475;49.662;9.636;2024-03-17T15:17:35;15.09;62.77
70851;DHT22;58475;49.662;9.636;2024-03-17T15:20:01;15.09;59.15
70851;DHT22;58475;49.662;9.636;2024-03-17T15:22:26;15.00;59.94
70851;DHT22;58475;49.662;9.636;2024-03-17T15:24:52;15.03;60.06
70851;DHT22;58475;49.662;9.636;2024-03-17T15:27:18;15.06;59.05
70851;DHT22;58475;49.662;9.636;2024-03-17T15:29:44;15.00;59.19
70851;DHT22;58475;49.662;9.636;2024-03-17T15:32:09;14.92;59.24
70851;DHT22;58475;49.662;9.636;2024-03-17T15:34:36;14.85;58.76
70851;DHT22;58475;49.662;9.636;2024-03-17T15:37:03;14.87;60.22
70851;DHT22;58475;49.662;9.636;2024-03-17T15:39:28;14.91;61.00
70851;DHT22;58475;49.662;9.636;2024-03-17T15:41:54;14.88;61.30
70851;DHT22;58475;49.662;9.636;2024-03-17T15:44:19;14.79;61.39
70851;DHT22;58475;49.662;9.636;2024-03-17T15:46:46;14.74;61.26
70851;DHT22;58475;49.662;9.636;2024-03-17T15:49:14;14.67;59.97
70851;DHT22;58475;49.662;9.636;2024-03-17T15:51:39;14.65;60.75
70851;DHT22;58475;49.662;9.636;2024-03-17T15:54:06;14.67;62.26
70851;DHT22;58475;49.662;9.636;2024-03-17T15:56:31;14.64;62.06
70851;DHT22;58475;49.662;9.636;2024-03-17T15:58:58;14.68;61.00
70851;DHT22;58475;49.662;9.636;2024-03-17T16:01:24;14.61;60.20
70851;DHT22;58475;49.662;9.636;2024-03-17T16:03:49;14.54;60.34